• Join FlightAware (Why Join?)
  • Login
  • US Flag 
06:13AM EST


 

Airport Tracker/Info


-or-


 

Live Flight TrackerFlight Track Log ✈ N516QS ✈ 17-Apr-2013 ✈ KCLE - KORL

Flight Track Log - Related Links

Times and Time Zones

All times are in EDT time to prevent confusion due to time zone crossing. See the N516QS flight status page for this flight to view local times or setup timezone preferences in your user account.

Time Position Orientation Groundspeed Altitude Reporting Facility
EDT Latitude Longitude Course Direction KTS MPH feet Rate Location/Type
12:48PM 41.3975 -81.7539 101° East 268 308 5,800  Level Cleveland Center
12:49PM 41.3225 -81.7333 168° South 268 308 9,700 3,060 Climbing Cleveland Center
12:50PM 41.2397 -81.6850 156° South 294 338 12,000 2,040 Climbing Cleveland Center
12:51PM 41.1928 -81.5600 116° Southeast 321 369 13,800 2,100 Climbing Cleveland Center
12:52PM 41.1333 -81.4378 123° Southeast 359 413 16,300 2,280 Climbing Cleveland Center
12:53PM 41.0275 -81.3675 153° Southeast 404 465 18,400 2,340 Climbing Cleveland Center
12:54PM 40.9194 -81.3114 159° South 412 474 21,000 2,400 Climbing Cleveland Center
12:55PM 40.8094 -81.2497 157° South 427 491 23,200 2,100 Climbing Cleveland Center
12:56PM 40.6931 -81.1856 157° South 452 520 25,300 1,980 Climbing Cleveland Center
12:57PM 40.5767 -81.1189 156° South 462 532 27,200 1,920 Climbing Cleveland Center
12:58PM 40.4519 -81.0497 157° South 462 532 29,200 1,980 Climbing Cleveland Center
12:59PM 40.3269 -80.9833 158° South 475 547 31,200 1,380 Climbing Cleveland Center
01:00PM 40.2022 -80.9147 157° South 485 558 32,000 960 Climbing Cleveland Center
01:01PM 40.0731 -80.8436 157° South 490 564 33,200 1,500 Climbing Cleveland Center
01:02PM 39.9525 -80.7617 152° Southeast 490 564 35,000 1,920 Climbing Cleveland Center
01:03PM 39.8378 -80.6669 148° Southeast 490 564 37,100 1,560 Climbing Cleveland Center
01:05PM 39.6044 -80.4722 147° Southeast 492 566 39,800 1,200 Climbing Washington Center
01:06PM 39.4833 -80.3728 148° Southeast 492 566 40,700 600 Climbing Washington Center
01:07PM 39.3581 -80.2731 148° Southeast 506 582 41,000 120 Climbing Washington Center
01:08PM 39.2206 -80.1597 147° Southeast 526 605 41,000  Level Washington Center
01:09PM 39.0975 -80.0556 147° Southeast 526 605 41,000  Level Washington Center
01:10PM 38.9717 -79.9625 150° Southeast 526 605 41,000  Level Washington Center
01:11PM 38.8478 -79.8644 148° Southeast 526 605 41,000  Level Washington Center
01:12PM 38.7364 -79.7728 147° Southeast 526 605 41,000  Level Washington Center
01:13PM 38.6128 -79.6703 147° Southeast 526 605 41,000  Level Washington Center
01:14PM 38.4867 -79.5731 149° Southeast 526 605 41,000  Level Washington Center
01:15PM 38.3650 -79.4739 147° Southeast 526 605 41,000  Level Washington Center
01:16PM 38.2286 -79.3664 148° Southeast 526 605 41,000  Level Washington Center
01:17PM 38.1044 -79.2678 148° Southeast 520 598 41,000  Level Washington Center
01:18PM 37.9800 -79.1747 149° Southeast 525 604 41,000  Level Washington Center
01:19PM 37.8417 -79.1311 166° South 510 587 41,000  Level Washington Center
01:20PM 37.7017 -79.1406 183° South 491 565 41,000  Level Washington Center
01:21PM 37.5778 -79.1686 190° South 503 579 41,000  Level Washington Center
01:22PM 37.4414 -79.1936 188° South 504 580 41,000  Level Washington Center
01:23PM 37.3050 -79.2211 189° South 504 580 41,000  Level Washington Center
01:24PM 37.1706 -79.2486 189° South 504 580 41,000  Level Washington Center
01:25PM 37.0383 -79.2764 190° South 499 574 41,000  Level Washington Center
01:26PM 36.9019 -79.3008 188° South 494 568 41,000  Level Washington Center
01:27PM 36.7569 -79.3303 189° South 489 563 41,000  Level Washington Center
01:28PM 36.6186 -79.3572 189° South 489 563 41,000  Level Washington Center
01:29PM 36.4822 -79.3817 188° South 489 563 41,000  Level Washington Center
01:30PM 36.3664 -79.4097 191° South 482 555 41,000  Level Washington Center
01:31PM 36.2322 -79.4339 188° South 482 555 41,000  Level Washington Center
01:32PM 36.0978 -79.4583 188° South 487 560 41,000  Level Washington Center
01:33PM 35.9508 -79.4844 188° South 492 566 41,000  Level Washington Center
01:34PM 35.8311 -79.5092 190° South 481 554 41,000  Level Washington Center
01:35PM 35.6800 -79.5375 189° South 491 565 41,000  Level Washington Center
01:36PM 35.5622 -79.5625 190° South 491 565 41,000  Level Washington Center
01:37PM 35.4281 -79.5864 188° South 491 565 41,000  Level Washington Center
01:38PM 35.2956 -79.6103 188° South 486 559 41,000  Level Washington Center
01:39PM 35.1633 -79.6342 188° South 486 559 41,000  Level Washington Center
01:41PM 34.8181 -79.6939 188° South 481 554 41,000  Level Jacksonville Center
01:42PM 34.6872 -79.7214 190° South 481 554 41,000  Level Jacksonville Center
01:43PM 34.5503 -79.7442 188° South 486 559 41,000  Level Jacksonville Center
01:44PM 34.4339 -79.7658 189° South 481 554 41,000 -240 Level Jacksonville Center
01:45PM 34.3011 -79.7933 190° South 486 559 40,600 -480 Descending Jacksonville Center
01:46PM 34.1772 -79.8481 200° South 480 552 40,100 -300 Descending Jacksonville Center
01:47PM 34.0536 -79.9075 202° Southwest 480 552 40,000 -60 Descending Jacksonville Center
01:48PM 33.9319 -79.9667 202° Southwest 480 552 40,000  Level Jacksonville Center
01:49PM 33.8100 -80.0256 202° Southwest 480 552 40,000  Level Jacksonville Center
01:50PM 33.6903 -80.0819 201° Southwest 474 545 40,000  Level Jacksonville Center
01:51PM 33.5686 -80.1406 202° Southwest 469 540 40,000  Level Jacksonville Center
01:52PM 33.4486 -80.1992 202° Southwest 469 540 40,000  Level Jacksonville Center
01:53PM 33.3289 -80.2550 201° Southwest 469 540 40,000  Level Jacksonville Center
01:54PM 33.2092 -80.3181 204° Southwest 469 540 40,000  Level Jacksonville Center
01:55PM 33.0828 -80.3689 199° South 474 545 40,000  Level Jacksonville Center
01:56PM 32.9403 -80.4397 203° Southwest 500 575 40,000  Level Jacksonville Center
01:57PM 32.8203 -80.4925 200° South 494 568 40,000  Level Jacksonville Center
01:58PM 32.7000 -80.5475 201° Southwest 478 550 40,000  Level Jacksonville Center
01:59PM 32.5781 -80.6047 202° Southwest 459 528 40,000  Level Jacksonville Center
02:00PM 32.4558 -80.6619 202° Southwest 465 535 40,000  Level Jacksonville Center
02:01PM 32.3336 -80.7167 201° Southwest 473 544 40,000  Level Jacksonville Center
02:02PM 32.2156 -80.7733 202° Southwest 467 537 40,000  Level Jacksonville Center
02:03PM 32.0933 -80.8278 201° Southwest 467 537 40,000  Level Jacksonville Center
02:04PM 31.9836 -80.8767 201° Southwest 467 537 40,000 -240 Level Jacksonville Center
02:05PM 31.8467 -80.9336 199° South 467 537 39,600 -900 Descending Jacksonville Center
02:06PM 31.7300 -80.9628 192° South 472 543 38,300 -1,500 Descending Jacksonville Center
02:07PM 31.5822 -80.9878 188° South 487 560 36,700 -1,560 Descending Jacksonville Center
02:08PM 31.4531 -81.0075 187° South 481 554 35,200 -1,560 Descending Jacksonville Center
02:09PM 31.3178 -81.0369 191° South 495 570 33,600 -1,800 Descending Jacksonville Center
02:10PM 31.1822 -81.0447 183° South 500 575 31,600 -2,100 Descending Jacksonville Center
02:11PM 31.0467 -81.0522 183° South 493 567 29,400 -1,860 Descending Jacksonville Center
02:12PM 30.9194 -81.0569 182° South 481 554 27,900 -1,500 Descending Jacksonville Center
02:13PM 30.7878 -81.0597 181° South 475 547 26,500 -1,500 Descending Jacksonville Center
02:14PM 30.6606 -81.0619 181° South 470 541 25,000 -1,260 Descending Jacksonville Center
02:15PM 30.5375 -81.0692 183° South 457 526 24,000 -540 Descending Jacksonville Center
02:16PM 30.4122 -81.0739 182° South 451 519 24,000  Level Jacksonville Center
02:17PM 30.2869 -81.0764 181° South 451 519 24,000 -720 Level Jacksonville Center
02:18PM 30.1639 -81.0811 182° South 451 519 22,600 -1,560 Descending Jacksonville Center
02:19PM 30.0492 -81.0856 182° South 433 498 20,900 -1,740 Descending Jacksonville Center
02:20PM 29.9344 -81.0925 183° South 426 490 19,200 -1,620 Descending Jacksonville Center
02:21PM 29.8197 -81.0972 182° South 418 481 17,700 -1,560 Descending Jacksonville Center
02:22PM 29.7778 -81.0978 181° South 409 471 17,100 -2,100 Descending Jacksonville Center
02:22PM 29.7111 -81.0992 181° South 407 468 15,600 -2,640 Descending Jacksonville Center
02:23PM 29.6297 -81.1053 184° South 384 442 13,400 -2,220 Descending Jacksonville Center
02:24PM 29.5108 -81.1075 181° South 358 412 11,400 -1,560 Descending Jacksonville Center
02:25PM 29.4169 -81.1117 182° South 343 395 10,000 -1,200 Descending Jacksonville Center
02:26PM 29.3439 -81.1153 182° South 287 330 9,000 -1,080 Descending Jacksonville Center
02:27PM 29.2669 -81.1239 186° South 279 321 7,900 -1,140 Descending Jacksonville Center
02:28PM 29.1794 -81.1422 190° South 289 333 6,700 -1,140 Descending Jacksonville Center
02:29PM 29.1044 -81.1600 192° South 289 333 5,600 -900 Descending Jacksonville Center
02:30PM 29.0317 -81.1756 191° South 284 327 5,000 -300 Descending Jacksonville Center
02:31PM 28.9567 -81.1889 189° South 274 315 5,000 -600 Level Jacksonville Center
02:33PM 28.8833 -81.3167 237° Southwest 277 319 3,400 -720 Descending Orlando TRACON
02:34PM 28.8500 -81.4000 245° Southwest 263 303 3,000 -240 Descending Orlando TRACON
02:35PM 28.8000 -81.4333 210° Southwest 213 245 3,000  Level Orlando TRACON
02:36PM 28.7500 -81.4667 210° Southwest 219 252 3,000  Level Orlando TRACON
02:37PM 28.6833 -81.5000 204° Southwest 246 283 3,100  Climbing Orlando TRACON
02:38PM 28.6333 -81.5333 210° Southwest 243 280 3,000 -60 Descending Orlando TRACON
02:39PM 28.5667 -81.5667 204° Southwest 241 277 3,000  Level Orlando TRACON
02:40PM 28.5167 -81.6167 221° Southwest 239 275 3,000 -360 Level Orlando TRACON
02:41PM 28.4500 -81.6167 180° South 211 243 2,300 -540 Descending Orlando TRACON
02:42PM 28.4000 -81.6000 164° South 211 243 2,000 -180 Descending Orlando TRACON
02:43PM 28.3500 -81.5667 150° Southeast 183 211 2,000  Level Orlando TRACON
02:44PM 28.3333 -81.5333 120° Southeast 180 207 2,100  Climbing Orlando TRACON
02:45PM 28.3667 -81.5167 24° Northeast 178 205 2,000 -60 Descending Orlando TRACON
02:46PM 28.4167 -81.4833 30° Northeast 179 206 2,000  Level Orlando TRACON
02:47PM 28.4667 -81.4667 16° North 175 201 2,000 -120 Level Orlando TRACON
02:48PM 28.5000 -81.4333 41° Northeast 176 203 1,800 -420 Descending Orlando TRACON
02:49PM 28.5167 -81.4000 60° Northeast 119 137 1,200 -600 Descending Orlando TRACON
02:50PM 28.5333 -81.3667 60° Northeast 103 119 600 -600 Descending Orlando TRACON